createdAt,value
2019-02-22T00:01:40.856Z,71.30
2019-02-22T00:04:09.282Z,71.20
2019-02-22T00:06:37.584Z,71.50
2019-02-22T00:09:06.597Z,71.90
2019-02-22T00:11:35.103Z,71.80
2019-02-22T00:14:04.008Z,71.50
2019-02-22T00:16:32.548Z,71.50
2019-02-22T00:19:01.190Z,72.10
2019-02-22T00:21:33.625Z,72.50
2019-02-22T00:24:02.107Z,73.10
2019-02-22T00:26:30.589Z,73.50
2019-02-22T00:28:59.000Z,73.60
2019-02-22T00:31:27.461Z,73.70
2019-02-22T00:33:55.958Z,73.50
2019-02-22T00:36:24.631Z,73.30
2019-02-22T00:38:53.078Z,73.10
2019-02-22T00:41:21.482Z,72.80
2019-02-22T00:43:50.068Z,72.40
2019-02-22T00:46:18.341Z,72.30
2019-02-22T00:48:46.690Z,72.20
2019-02-22T00:51:15.125Z,72.90
2019-02-22T00:53:43.479Z,72.50
2019-02-22T00:56:11.866Z,72.80
2019-02-22T00:58:59.930Z,72.60
2019-02-22T01:01:28.337Z,72.40
2019-02-22T01:04:01.325Z,72.20
2019-02-22T01:06:29.860Z,72.10
2019-02-22T01:08:58.421Z,71.90
2019-02-22T01:11:26.862Z,71.80
2019-02-22T01:13:55.288Z,71.80
2019-02-22T01:16:23.668Z,72.10
2019-02-22T01:18:52.120Z,72.20
2019-02-22T01:21:20.544Z,72.00
2019-02-22T01:24:08.314Z,71.70
2019-02-22T01:26:36.849Z,72.00
2019-02-22T01:29:05.230Z,72.60
2019-02-22T01:31:33.671Z,73.00
2019-02-22T01:34:02.113Z,73.00
2019-02-22T01:36:30.606Z,72.60
2019-02-22T01:38:58.957Z,72.30
2019-02-22T01:41:27.342Z,72.20
2019-02-22T01:43:55.786Z,72.30
2019-02-22T01:46:24.153Z,72.70
2019-02-22T01:48:52.514Z,73.10
2019-02-22T01:51:21.078Z,73.40
2019-02-22T01:53:49.521Z,73.40
2019-02-22T01:56:17.889Z,73.10
2019-02-22T01:58:48.971Z,73.00
2019-02-22T02:01:16.425Z,73.00
2019-02-22T02:03:44.944Z,72.70
2019-02-22T02:06:13.387Z,73.00
2019-02-22T02:08:41.894Z,73.30
2019-02-22T02:11:10.268Z,73.40
2019-02-22T02:13:38.772Z,73.40
2019-02-22T02:16:07.125Z,73.20
2019-02-22T02:18:35.515Z,73.00
2019-02-22T02:21:03.961Z,73.10
2019-02-22T02:23:32.356Z,73.10
2019-02-22T02:26:00.896Z,73.20
2019-02-22T02:28:29.338Z,73.30
2019-02-22T02:30:57.761Z,73.40
2019-02-22T02:33:26.274Z,73.40
2019-02-22T02:36:14.219Z,73.60
2019-02-22T02:38:42.582Z,73.60
2019-02-22T02:41:11.684Z,73.90
2019-02-22T02:43:40.321Z,74.00
2019-02-22T02:46:08.873Z,74.10
2019-02-22T02:48:37.444Z,74.50
2019-02-22T02:51:05.942Z,75.10
2019-02-22T02:53:34.555Z,75.30
2019-02-22T02:56:03.029Z,75.30
2019-02-22T02:58:31.552Z,75.10
2019-02-22T03:01:00.030Z,75.30
2019-02-22T03:03:28.486Z,75.20
2019-02-22T03:06:04.465Z,76.00
2019-02-22T03:08:34.434Z,75.40
2019-02-22T03:11:02.869Z,75.40
2019-02-22T03:13:31.307Z,75.40
2019-02-22T03:15:59.748Z,75.40
2019-02-22T03:18:28.139Z,75.60
2019-02-22T03:20:56.608Z,75.90
2019-02-22T03:23:25.045Z,76.20
2019-02-22T03:25:53.425Z,76.10
2019-02-22T03:28:21.958Z,75.90
2019-02-22T03:30:50.692Z,76.10
2019-02-22T03:33:19.299Z,76.00
2019-02-22T03:35:47.749Z,75.90
2019-02-22T03:38:18.348Z,75.80
2019-02-22T03:40:46.681Z,76.10
2019-02-22T03:43:15.054Z,76.20
2019-02-22T03:45:43.622Z,76.50
2019-02-22T03:48:17.045Z,76.80
2019-02-22T03:50:45.496Z,77.10
2019-02-22T03:53:15.606Z,77.40
2019-02-22T03:55:43.999Z,77.20
2019-02-22T03:58:12.421Z,76.90
2019-02-22T04:00:43.811Z,76.50
2019-02-22T04:03:12.242Z,76.20
2019-02-22T04:05:40.688Z,76.10
2019-02-22T04:08:09.021Z,76.10
2019-02-22T04:10:37.562Z,76.30
2019-02-22T04:13:05.932Z,76.40
2019-02-22T04:15:34.455Z,76.60
2019-02-22T04:18:02.930Z,76.80
2019-02-22T04:20:31.322Z,76.60
2019-02-22T04:22:59.833Z,76.60
2019-02-22T04:25:28.138Z,76.60
2019-02-22T04:27:56.809Z,77.50
2019-02-22T04:30:25.234Z,77.10
2019-02-22T04:32:53.711Z,76.50
2019-02-22T04:35:22.099Z,76.50
2019-02-22T04:37:50.599Z,77.20
2019-02-22T04:40:19.033Z,76.80
2019-02-22T04:42:47.506Z,76.90
2019-02-22T04:45:15.937Z,76.80
2019-02-22T04:47:44.400Z,77.40
2019-02-22T04:50:12.882Z,76.40
2019-02-22T04:52:41.347Z,76.20
2019-02-22T04:55:09.832Z,76.00
2019-02-22T04:57:38.220Z,75.90
2019-02-22T05:00:07.249Z,75.90
2019-02-22T05:02:55.149Z,76.00
2019-02-22T05:05:24.602Z,76.10
2019-02-22T05:07:53.067Z,76.00
2019-02-22T05:10:24.081Z,75.80
2019-02-22T05:12:52.545Z,75.40
2019-02-22T05:15:21.017Z,75.10
2019-02-22T05:17:49.498Z,75.00
2019-02-22T05:20:18.981Z,75.10
2019-02-22T05:22:47.417Z,75.30
2019-02-22T05:25:15.882Z,75.30
2019-02-22T05:27:44.488Z,75.00
2019-02-22T05:30:12.972Z,74.60
2019-02-22T05:32:41.426Z,74.30
2019-02-22T05:35:09.931Z,74.30
2019-02-22T05:37:38.402Z,74.20
2019-02-22T05:40:07.035Z,74.10
2019-02-22T05:42:35.784Z,74.00
2019-02-22T05:45:05.069Z,74.00
2019-02-22T05:47:33.468Z,73.80
2019-02-22T05:50:02.043Z,73.70
2019-02-22T05:52:30.456Z,73.90
2019-02-22T05:54:58.999Z,74.00
2019-02-22T05:57:27.486Z,74.00
2019-02-22T05:59:55.961Z,74.00
2019-02-22T06:02:24.415Z,74.00
2019-02-22T06:04:52.934Z,74.00
2019-02-22T06:07:21.385Z,74.00
2019-02-22T06:09:49.899Z,73.70
2019-02-22T06:12:18.727Z,73.80
2019-02-22T06:14:47.270Z,73.90
2019-02-22T06:17:15.635Z,74.00
2019-02-22T06:19:44.264Z,74.00
2019-02-22T06:22:12.618Z,74.00
2019-02-22T06:24:41.077Z,74.00
2019-02-22T06:27:09.598Z,74.10
2019-02-22T06:29:38.085Z,74.00
2019-02-22T06:32:06.454Z,74.00
2019-02-22T06:34:34.942Z,73.80
2019-02-22T06:37:03.446Z,74.60
2019-02-22T06:39:31.914Z,73.80
2019-02-22T06:42:00.352Z,73.80
2019-02-22T06:44:28.743Z,73.90
2019-02-22T06:46:57.201Z,73.90
2019-02-22T06:49:25.902Z,73.80
2019-02-22T06:51:54.346Z,74.00
2019-02-22T06:54:22.835Z,73.90
2019-02-22T06:56:51.329Z,73.80
2019-02-22T06:59:19.659Z,73.70
2019-02-22T07:01:50.000Z,73.70
2019-02-22T07:04:37.634Z,73.80
2019-02-22T07:07:06.039Z,73.70
2019-02-22T07:09:34.498Z,73.70
2019-02-22T07:12:04.572Z,73.70
2019-02-22T07:14:33.036Z,73.30
2019-02-22T07:17:01.465Z,72.90
2019-02-22T07:19:30.023Z,72.60
2019-02-22T07:21:58.457Z,72.30
2019-02-22T07:24:26.817Z,71.90
2019-02-22T07:26:55.205Z,71.70
2019-02-22T07:29:23.574Z,71.30
2019-02-22T07:31:52.019Z,71.20
2019-02-22T07:34:20.555Z,70.90
2019-02-22T07:36:48.918Z,70.60
2019-02-22T07:39:27.288Z,70.30
2019-02-22T07:41:47.521Z,70.00
2019-02-22T07:44:15.957Z,69.60
2019-02-22T07:46:44.345Z,69.30
2019-02-22T07:49:32.268Z,68.80
2019-02-22T07:52:00.677Z,68.50
2019-02-22T07:54:29.096Z,68.20
2019-02-22T07:56:58.674Z,67.90
2019-02-22T07:59:27.052Z,67.70
2019-02-22T08:01:55.473Z,67.70
2019-02-22T08:04:23.903Z,67.10
2019-02-22T08:06:52.353Z,66.90
2019-02-22T08:09:20.808Z,66.70
2019-02-22T08:11:49.246Z,66.40
2019-02-22T08:14:17.865Z,66.10
2019-02-22T08:16:46.320Z,65.70
2019-02-22T08:19:14.745Z,65.40
2019-02-22T08:22:03.582Z,65.20
2019-02-22T08:24:32.148Z,65.00
2019-02-22T08:27:00.564Z,64.90
2019-02-22T08:29:29.085Z,64.90
2019-02-22T08:31:57.603Z,65.00
2019-02-22T08:34:32.106Z,65.20
2019-02-22T08:37:00.713Z,65.10
2019-02-22T08:39:29.133Z,64.90
2019-02-22T08:41:57.598Z,64.50
2019-02-22T08:44:26.043Z,64.30
2019-02-22T08:46:54.533Z,64.20
2019-02-22T08:49:23.022Z,63.80
2019-02-22T08:51:51.574Z,63.30
2019-02-22T08:54:20.077Z,62.70
2019-02-22T08:56:48.506Z,62.60
2019-02-22T08:59:17.009Z,62.60
2019-02-22T09:01:45.498Z,62.60
2019-02-22T09:04:13.925Z,62.40
2019-02-22T09:06:42.484Z,62.10
2019-02-22T09:09:11.090Z,61.70
2019-02-22T09:11:39.590Z,61.50
2019-02-22T09:14:08.079Z,61.50
2019-02-22T09:16:37.606Z,61.70
2019-02-22T09:19:06.080Z,61.20
2019-02-22T09:21:34.530Z,61.10
2019-02-22T09:24:03.034Z,60.90
2019-02-22T09:26:31.580Z,60.60
2019-02-22T09:29:00.074Z,60.30
2019-02-22T09:31:28.638Z,60.10
2019-02-22T09:33:56.936Z,60.00
2019-02-22T09:36:25.325Z,59.90
2019-02-22T09:38:53.802Z,59.70
2019-02-22T09:41:22.262Z,59.50
2019-02-22T09:43:55.329Z,59.50
2019-02-22T09:46:20.813Z,59.20
2019-02-22T09:48:49.379Z,59.60
2019-02-22T09:51:17.930Z,59.00
2019-02-22T09:53:46.450Z,58.90
2019-02-22T09:56:14.942Z,59.10
2019-02-22T09:58:43.395Z,58.60
2019-02-22T10:01:11.736Z,58.50
2019-02-22T10:03:41.290Z,59.00
2019-02-22T10:06:09.783Z,58.20
2019-02-22T10:08:38.237Z,58.00
2019-02-22T10:11:06.694Z,57.70
2019-02-22T10:13:35.260Z,57.70
2019-02-22T10:16:23.265Z,57.90
2019-02-22T10:18:51.657Z,57.40
2019-02-22T10:21:20.091Z,57.30
2019-02-22T10:23:49.553Z,57.10
2019-02-22T10:26:18.037Z,56.80
2019-02-22T10:29:05.973Z,56.70
2019-02-22T10:31:34.470Z,56.50
2019-02-22T10:34:02.881Z,56.40
2019-02-22T10:36:31.510Z,56.20
2019-02-22T10:39:19.448Z,56.10
2019-02-22T10:41:48.087Z,55.80
2019-02-22T10:44:18.133Z,55.50
2019-02-22T10:46:46.624Z,55.40
2019-02-22T10:49:15.110Z,55.10
2019-02-22T10:51:43.630Z,54.80
2019-02-22T10:54:12.044Z,54.70
2019-02-22T10:56:40.397Z,54.50
2019-02-22T10:59:08.928Z,54.50
2019-02-22T11:01:37.318Z,54.40
2019-02-22T11:04:05.772Z,54.00
2019-02-22T11:06:35.295Z,53.60
2019-02-22T11:09:04.793Z,53.10
2019-02-22T11:11:33.254Z,52.80
2019-02-22T11:14:01.769Z,52.20
2019-02-22T11:16:30.204Z,51.90
2019-02-22T11:18:58.864Z,51.70
2019-02-22T11:21:27.380Z,51.50
2019-02-22T11:23:55.817Z,51.40
2019-02-22T11:26:24.318Z,51.00
2019-02-22T11:28:52.837Z,50.70
2019-02-22T11:31:21.366Z,50.60
2019-02-22T11:33:49.809Z,50.70
2019-02-22T11:36:18.235Z,50.30
2019-02-22T11:38:46.634Z,49.90
2019-02-22T11:41:15.227Z,50.10
2019-02-22T11:43:43.660Z,50.10
2019-02-22T11:46:12.096Z,50.40
2019-02-22T11:49:00.034Z,50.30
2019-02-22T11:51:28.506Z,49.90
2019-02-22T11:53:56.942Z,49.70
2019-02-22T11:56:25.566Z,49.60
2019-02-22T11:58:53.943Z,49.10
2019-02-22T12:01:23.801Z,48.90
2019-02-22T12:03:52.389Z,48.20
2019-02-22T12:06:20.900Z,47.70
2019-02-22T12:08:49.351Z,47.50
2019-02-22T12:11:17.784Z,47.60
2019-02-22T12:13:46.161Z,47.50
2019-02-22T12:16:14.611Z,47.10
2019-02-22T12:18:43.158Z,46.60
2019-02-22T12:21:11.599Z,46.50
2019-02-22T12:23:40.097Z,46.30
2019-02-22T12:26:08.671Z,45.90
2019-02-22T12:28:37.169Z,45.60
2019-02-22T12:31:05.605Z,45.20
2019-02-22T12:33:34.214Z,44.60
2019-02-22T12:36:02.656Z,44.20
2019-02-22T12:38:31.106Z,43.80
2019-02-22T12:40:59.661Z,43.70
2019-02-22T12:43:28.089Z,43.90
2019-02-22T12:45:56.543Z,43.40
2019-02-22T12:48:25.090Z,42.70
2019-02-22T12:50:53.541Z,42.90
2019-02-22T12:53:21.935Z,43.00
2019-02-22T12:55:50.556Z,42.90
2019-02-22T12:58:19.021Z,39.60
2019-02-22T13:00:47.550Z,34.90
2019-02-22T13:03:16.066Z,29.40
2019-02-22T13:05:44.604Z,27.60
2019-02-22T13:08:12.977Z,26.40
2019-02-22T13:10:41.466Z,25.30
2019-02-22T13:13:09.844Z,24.20
2019-02-22T13:15:38.283Z,23.90
2019-02-22T13:18:06.842Z,23.80
2019-02-22T13:20:35.319Z,23.50
2019-02-22T13:23:03.657Z,23.40
2019-02-22T13:25:32.150Z,23.00
2019-02-22T13:28:00.533Z,22.40
2019-02-22T13:30:28.899Z,22.20
2019-02-22T13:32:57.397Z,21.70
2019-02-22T13:35:25.904Z,21.80
2019-02-22T13:37:54.939Z,21.80
2019-02-22T13:40:23.481Z,21.60
2019-02-22T13:42:51.874Z,21.40
2019-02-22T13:45:39.820Z,20.90
2019-02-22T13:48:08.242Z,21.00
2019-02-22T13:50:36.623Z,21.30
2019-02-22T13:53:05.115Z,21.30
2019-02-22T13:55:52.965Z,21.30
2019-02-22T13:58:21.457Z,21.20
2019-02-22T14:00:49.973Z,21.20
2019-02-22T14:03:18.397Z,21.00
2019-02-22T14:05:46.952Z,21.00
2019-02-22T14:08:15.421Z,20.80
2019-02-22T14:10:43.953Z,20.70
2019-02-22T14:13:12.380Z,20.80
2019-02-22T14:15:40.779Z,20.90
2019-02-22T14:18:28.721Z,20.90
2019-02-22T14:20:57.105Z,21.00
2019-02-22T14:23:25.610Z,21.20
2019-02-22T14:25:54.082Z,21.50
2019-02-22T14:28:22.490Z,22.00
2019-02-22T14:30:50.964Z,22.40
2019-02-22T14:33:19.457Z,22.70
2019-02-22T14:35:47.841Z,22.80
2019-02-22T14:38:16.250Z,22.80
2019-02-22T14:40:44.927Z,22.80
2019-02-22T14:43:16.579Z,22.80
2019-02-22T14:45:49.696Z,22.90
2019-02-22T14:48:13.517Z,22.90
2019-02-22T14:50:41.986Z,23.00
2019-02-22T14:53:19.034Z,22.70
2019-02-22T14:55:40.606Z,22.20
2019-02-22T14:58:09.133Z,22.20
2019-02-22T15:00:37.597Z,22.20
2019-02-22T15:03:06.138Z,22.00
2019-02-22T15:05:34.605Z,22.00
2019-02-22T15:08:03.007Z,21.80
2019-02-22T15:10:31.515Z,22.10
2019-02-22T15:13:19.334Z,22.10
2019-02-22T15:16:00.179Z,22.20
2019-02-22T15:18:22.526Z,22.20
2019-02-22T15:20:50.988Z,22.40
2019-02-22T15:23:19.437Z,22.40
2019-02-22T15:25:47.794Z,22.50
2019-02-22T15:28:16.236Z,22.60
2019-02-22T15:30:45.401Z,22.80
2019-02-22T15:33:14.017Z,22.90
2019-02-22T15:35:42.457Z,23.00
2019-02-22T15:38:11.248Z,23.20
2019-02-22T15:40:58.981Z,23.50
2019-02-22T15:43:27.459Z,23.60
2019-02-22T15:45:55.971Z,23.90
2019-02-22T15:48:24.412Z,24.10
2019-02-22T15:50:52.861Z,24.30
2019-02-22T15:53:21.386Z,24.60
2019-02-22T15:55:49.733Z,24.80
2019-02-22T15:58:18.232Z,24.90
2019-02-22T16:00:46.702Z,25.20
2019-02-22T16:03:15.128Z,25.50
2019-02-22T16:05:45.172Z,25.80
2019-02-22T16:08:13.740Z,25.90
2019-02-22T16:10:42.171Z,26.00
2019-02-22T16:13:10.634Z,26.10
2019-02-22T16:15:40.683Z,26.40
2019-02-22T16:18:09.279Z,26.70
2019-02-22T16:20:37.726Z,26.90
2019-02-22T16:23:06.177Z,27.20
2019-02-22T16:25:34.639Z,27.70
2019-02-22T16:28:03.092Z,28.10
2019-02-22T16:30:32.368Z,28.60
2019-02-22T16:33:01.020Z,28.90
2019-02-22T16:35:29.428Z,29.20
2019-02-22T16:37:58.153Z,29.50
2019-02-22T16:40:26.593Z,29.90
2019-02-22T16:42:54.918Z,30.50
2019-02-22T16:45:23.460Z,31.40
2019-02-22T16:47:52.062Z,32.10
2019-02-22T16:50:20.421Z,32.80
2019-02-22T16:52:48.818Z,33.30
2019-02-22T16:55:17.269Z,33.80
2019-02-22T16:57:45.767Z,34.20
2019-02-22T17:00:15.303Z,34.60
2019-02-22T17:02:43.716Z,34.90
2019-02-22T17:05:14.876Z,35.20
2019-02-22T17:07:43.254Z,35.50
2019-02-22T17:10:11.931Z,35.80
2019-02-22T17:12:40.429Z,36.10
2019-02-22T17:15:13.554Z,36.40
2019-02-22T17:17:42.020Z,36.50
2019-02-22T17:20:11.822Z,36.80
2019-02-22T17:22:40.296Z,37.00
2019-02-22T17:25:11.934Z,37.30
2019-02-22T17:27:40.275Z,37.50
2019-02-22T17:30:11.916Z,37.80
2019-02-22T17:32:40.427Z,38.00
2019-02-22T17:35:08.732Z,38.20
2019-02-22T17:37:37.207Z,38.30
2019-02-22T17:40:12.088Z,38.50
2019-02-22T17:42:40.512Z,38.80
2019-02-22T17:45:09.013Z,39.10
2019-02-22T17:47:37.516Z,39.30
2019-02-22T17:50:08.017Z,39.50
2019-02-22T17:52:36.451Z,40.20
2019-02-22T17:55:09.314Z,39.80
2019-02-22T17:57:37.945Z,40.00
2019-02-22T18:00:13.656Z,40.20
2019-02-22T18:02:42.115Z,41.00
2019-02-22T18:05:30.017Z,40.50
2019-02-22T18:07:58.489Z,40.60
2019-02-22T18:10:26.846Z,40.70
2019-02-22T18:12:55.310Z,40.80
2019-02-22T18:15:23.876Z,41.10
2019-02-22T18:17:52.380Z,41.10
2019-02-22T18:20:20.879Z,41.20
2019-02-22T18:22:49.379Z,41.40
2019-02-22T18:25:17.748Z,41.50
2019-02-22T18:27:46.105Z,41.70
2019-02-22T18:30:17.185Z,41.90
2019-02-22T18:32:45.554Z,42.10
2019-02-22T18:35:13.947Z,42.20
2019-02-22T18:37:42.412Z,42.30
2019-02-22T18:40:13.475Z,42.40
2019-02-22T18:42:41.994Z,42.60
2019-02-22T18:45:12.337Z,42.80
2019-02-22T18:47:40.815Z,43.00
2019-02-22T18:50:10.700Z,43.20
2019-02-22T18:52:39.238Z,43.50
2019-02-22T18:55:09.590Z,44.40
2019-02-22T18:57:38.012Z,44.20
2019-02-22T19:00:20.690Z,44.60
2019-02-22T19:02:49.357Z,44.90
2019-02-22T19:05:17.842Z,45.40
2019-02-22T19:07:46.444Z,46.10
2019-02-22T19:10:16.753Z,46.80
2019-02-22T19:12:45.264Z,47.50
2019-02-22T19:15:14.527Z,47.90
2019-02-22T19:17:42.957Z,48.60
2019-02-22T19:20:21.647Z,49.00
2019-02-22T19:22:50.165Z,49.60
2019-02-22T19:25:18.650Z,50.30
2019-02-22T19:27:47.090Z,50.90
2019-02-22T19:30:21.078Z,51.20
2019-02-22T19:32:49.521Z,51.50
2019-02-22T19:35:18.875Z,52.00
2019-02-22T19:37:47.505Z,52.30
2019-02-22T19:40:19.168Z,52.70
2019-02-22T19:42:47.528Z,53.00
2019-02-22T19:45:15.896Z,53.30
2019-02-22T19:47:44.306Z,53.60
2019-02-22T19:50:13.915Z,53.80
2019-02-22T19:52:42.580Z,54.20
2019-02-22T19:55:18.667Z,54.40
2019-02-22T19:57:47.114Z,54.60
2019-02-22T20:00:17.709Z,54.90
2019-02-22T20:02:46.160Z,55.20
2019-02-22T20:05:15.488Z,55.30
2019-02-22T20:07:44.335Z,55.50
2019-02-22T20:10:18.944Z,55.80
2019-02-22T20:12:47.508Z,56.10
2019-02-22T20:15:18.897Z,56.20
2019-02-22T20:17:53.800Z,56.50
2019-02-22T20:20:18.612Z,56.50
2019-02-22T20:22:47.122Z,56.80
2019-02-22T20:25:15.804Z,56.90
2019-02-22T20:27:44.408Z,57.00
2019-02-22T20:30:18.180Z,57.10
2019-02-22T20:32:47.346Z,57.20
2019-02-22T20:35:27.277Z,57.30
2019-02-22T20:37:56.317Z,57.70
2019-02-22T20:40:25.313Z,58.20
2019-02-22T20:42:54.126Z,58.50
2019-02-22T20:45:23.094Z,58.60
2019-02-22T20:47:52.057Z,58.50
2019-02-22T20:50:21.104Z,58.40
2019-02-22T20:52:49.948Z,58.20
2019-02-22T20:55:18.858Z,58.20
2019-02-22T20:57:48.098Z,58.20
2019-02-22T21:00:22.459Z,58.20
2019-02-22T21:02:51.357Z,58.40
2019-02-22T21:05:20.191Z,58.50
2019-02-22T21:07:49.137Z,58.60
2019-02-22T21:10:20.008Z,58.50
2019-02-22T21:12:49.017Z,58.50
2019-02-22T21:15:17.932Z,58.60
2019-02-22T21:17:46.504Z,58.60
2019-02-22T21:20:19.108Z,58.70
2019-02-22T21:22:47.551Z,58.70
2019-02-22T21:25:15.909Z,58.80
2019-02-22T21:27:44.376Z,58.90
2019-02-22T21:30:16.927Z,59.00
2019-02-22T21:32:45.409Z,59.10
2019-02-22T21:35:13.918Z,59.10
2019-02-22T21:37:43.341Z,59.10
2019-02-22T21:40:14.490Z,59.60
2019-02-22T21:42:43.129Z,59.10
2019-02-22T21:45:13.691Z,59.10
2019-02-22T21:47:53.736Z,59.30
2019-02-22T21:50:13.608Z,59.90
2019-02-22T21:52:42.011Z,60.50
2019-02-22T21:55:15.583Z,61.00
2019-02-22T21:57:44.088Z,61.20
2019-02-22T22:00:23.535Z,61.50
2019-02-22T22:02:52.011Z,61.60
2019-02-22T22:05:20.308Z,61.60
2019-02-22T22:07:48.700Z,61.50
2019-02-22T22:10:17.301Z,61.20
2019-02-22T22:12:45.665Z,60.70
2019-02-22T22:15:15.193Z,60.40
2019-02-22T22:17:43.705Z,60.20
2019-02-22T22:20:12.174Z,59.80
2019-02-22T22:22:40.648Z,59.70
2019-02-22T22:25:10.953Z,59.70
2019-02-22T22:27:39.382Z,59.70
2019-02-22T22:30:12.896Z,59.60
2019-02-22T22:32:41.431Z,59.70
2019-02-22T22:35:14.244Z,59.80
2019-02-22T22:37:42.694Z,59.70
2019-02-22T22:40:11.318Z,59.60
2019-02-22T22:42:39.796Z,59.80
2019-02-22T22:45:16.314Z,59.70
2019-02-22T22:47:44.097Z,59.70
2019-02-22T22:50:14.658Z,59.70
2019-02-22T22:52:43.108Z,59.90
2019-02-22T22:55:11.670Z,59.80
2019-02-22T22:57:40.094Z,59.80
2019-02-22T23:00:25.376Z,59.80
2019-02-22T23:02:53.817Z,59.80
2019-02-22T23:05:22.222Z,59.80
2019-02-22T23:07:50.752Z,59.80
2019-02-22T23:10:19.182Z,59.80
2019-02-22T23:12:47.641Z,59.70
2019-02-22T23:15:16.165Z,59.70
2019-02-22T23:17:44.629Z,59.60
2019-02-22T23:20:13.057Z,59.60
2019-02-22T23:22:41.519Z,59.50
2019-02-22T23:25:09.985Z,59.50
2019-02-22T23:27:38.432Z,59.40
2019-02-22T23:30:08.276Z,59.50
2019-02-22T23:32:36.688Z,59.70
2019-02-22T23:35:06.046Z,60.10
2019-02-22T23:37:34.582Z,60.70
2019-02-22T23:40:03.037Z,60.90
2019-02-22T23:42:31.507Z,60.90
2019-02-22T23:45:00.050Z,60.90
2019-02-22T23:47:28.538Z,61.50
2019-02-22T23:49:57.027Z,60.50
2019-02-22T23:52:25.483Z,60.30
2019-02-22T23:54:53.840Z,60.50
2019-02-22T23:57:22.231Z,60.70
2019-02-22T23:59:50.764Z,60.70
